N829GW KRDU-KRDU
Flight info
| Callsign | N829GW |
|---|---|
| Flight time | 0h 17m |
| Altitude | VFR |
| Route | |
| Aircraft | C172/L-DOV/C |
Departure
| Time | 2026-04-29 22:55 |
|---|---|
| Airport | Raleigh-Durham International Airport (KRDU) |
Arrival
| Time | 2026-04-29 23:13 |
|---|---|
| Airport | Raleigh-Durham International Airport (KRDU) |
| Time | Latitude | Longitude | Altitude | Speed | Heading |
|---|---|---|---|---|---|
| 2026-04-29 22:46 | 35.88064 | -78.78262 | 434 ft | 0 kts | 224° |
| 2026-04-29 22:51 | 35.88017 | -78.78268 | 433 ft | 7 kts | 148° |
| 2026-04-29 22:52 | 35.87987 | -78.78233 | 433 ft | 5 kts | 134° |
| 2026-04-29 22:52 | 35.87963 | -78.78195 | 423 ft | 6 kts | 99° |
| 2026-04-29 22:52 | 35.87976 | -78.78162 | 429 ft | 6 kts | 36° |
| 2026-04-29 22:52 | 35.88008 | -78.78105 | 433 ft | 9 kts | 82° |
| 2026-04-29 22:53 | 35.87990 | -78.78059 | 434 ft | 4 kts | 137° |
| 2026-04-29 22:53 | 35.87987 | -78.78055 | 433 ft | 0 kts | 141° |
| 2026-04-29 22:54 | 35.87957 | -78.78019 | 438 ft | 10 kts | 128° |
| 2026-04-29 22:54 | 35.87903 | -78.77985 | 435 ft | 10 kts | 190° |
| 2026-04-29 22:54 | 35.87817 | -78.78068 | 431 ft | 31 kts | 225° |
| 2026-04-29 22:54 | 35.87552 | -78.78395 | 436 ft | 72 kts | 224° |
| 2026-04-29 22:55 | 35.87152 | -78.78880 | 545 ft | 88 kts | 225° |
| 2026-04-29 22:55 | 35.86712 | -78.79448 | 689 ft | 94 kts | 226° |
| 2026-04-29 22:55 | 35.86282 | -78.80028 | 972 ft | 90 kts | 229° |
| 2026-04-29 22:55 | 35.85868 | -78.80580 | 1209 ft | 90 kts | 221° |
| 2026-04-29 22:56 | 35.85354 | -78.81053 | 1378 ft | 94 kts | 208° |
| 2026-04-29 22:56 | 35.84703 | -78.80998 | 1451 ft | 100 kts | 156° |
| 2026-04-29 22:56 | 35.84221 | -78.80382 | 1437 ft | 106 kts | 112° |
| 2026-04-29 22:56 | 35.84249 | -78.79488 | 1494 ft | 104 kts | 77° |
| 2026-04-29 22:57 | 35.84645 | -78.78753 | 1506 ft | 103 kts | 50° |
| 2026-04-29 22:57 | 35.85142 | -78.78092 | 1505 ft | 105 kts | 47° |
| 2026-04-29 22:57 | 35.85657 | -78.77437 | 1500 ft | 107 kts | 47° |
| 2026-04-29 22:57 | 35.86135 | -78.76768 | 1502 ft | 106 kts | 52° |
| 2026-04-29 22:58 | 35.86616 | -78.76033 | 1534 ft | 108 kts | 54° |
| 2026-04-29 22:58 | 35.87060 | -78.75318 | 1499 ft | 107 kts | 57° |
| 2026-04-29 22:58 | 35.87538 | -78.74642 | 1498 ft | 99 kts | 30° |
| 2026-04-29 22:58 | 35.88186 | -78.74571 | 1484 ft | 93 kts | 332° |
| 2026-04-29 22:59 | 35.88674 | -78.75064 | 1463 ft | 92 kts | 307° |
| 2026-04-29 22:59 | 35.88841 | -78.75807 | 1389 ft | 93 kts | 266° |
| 2026-04-29 22:59 | 35.88758 | -78.76594 | 1170 ft | 91 kts | 252° |
| 2026-04-29 22:59 | 35.88448 | -78.77285 | 872 ft | 90 kts | 234° |
| 2026-04-29 23:00 | 35.88049 | -78.77786 | 611 ft | 78 kts | 224° |
| 2026-04-29 23:00 | 35.87686 | -78.78231 | 435 ft | 65 kts | 227° |
| 2026-04-29 23:00 | 35.87407 | -78.78575 | 427 ft | 60 kts | 224° |
| 2026-04-29 23:00 | 35.87039 | -78.79024 | 480 ft | 85 kts | 226° |
| 2026-04-29 23:01 | 35.86603 | -78.79567 | 642 ft | 90 kts | 227° |
| 2026-04-29 23:01 | 35.86310 | -78.79937 | 807 ft | 91 kts | 227° |
| 2026-04-29 23:01 | 35.85744 | -78.80686 | 1106 ft | 91 kts | 228° |
| 2026-04-29 23:01 | 35.85455 | -78.81069 | 1240 ft | 93 kts | 227° |
| 2026-04-29 23:02 | 35.84754 | -78.81625 | 1420 ft | 94 kts | 189° |
| 2026-04-29 23:02 | 35.84155 | -78.81308 | 1502 ft | 101 kts | 137° |
| 2026-04-29 23:02 | 35.83900 | -78.80462 | 1476 ft | 115 kts | 92° |
| 2026-04-29 23:02 | 35.84168 | -78.79549 | 1564 ft | 116 kts | 60° |
| 2026-04-29 23:03 | 35.84482 | -78.79001 | 1575 ft | 114 kts | 55° |
| 2026-04-29 23:03 | 35.84987 | -78.78247 | 1556 ft | 116 kts | 48° |
| 2026-04-29 23:03 | 35.85577 | -78.77562 | 1485 ft | 119 kts | 43° |
| 2026-04-29 23:03 | 35.86186 | -78.76876 | 1406 ft | 119 kts | 44° |
| 2026-04-29 23:04 | 35.86764 | -78.76176 | 1445 ft | 114 kts | 49° |
| 2026-04-29 23:04 | 35.87275 | -78.75459 | 1468 ft | 112 kts | 50° |
| 2026-04-29 23:04 | 35.87869 | -78.74855 | 1399 ft | 114 kts | 18° |
| 2026-04-29 23:04 | 35.88591 | -78.75038 | 1329 ft | 105 kts | 315° |
| 2026-04-29 23:05 | 35.88841 | -78.75747 | 1217 ft | 88 kts | 271° |
| 2026-04-29 23:05 | 35.88787 | -78.76452 | 1072 ft | 79 kts | 251° |
| 2026-04-29 23:05 | 35.88550 | -78.77051 | 880 ft | 75 kts | 234° |
| 2026-04-29 23:05 | 35.88235 | -78.77548 | 681 ft | 74 kts | 226° |
| 2026-04-29 23:06 | 35.87867 | -78.78005 | 519 ft | 73 kts | 227° |
| 2026-04-29 23:06 | 35.87535 | -78.78414 | 427 ft | 58 kts | 226° |
| 2026-04-29 23:06 | 35.87271 | -78.78741 | 427 ft | 62 kts | 223° |
| 2026-04-29 23:06 | 35.86912 | -78.79174 | 538 ft | 78 kts | 225° |
| 2026-04-29 23:07 | 35.86527 | -78.79652 | 742 ft | 79 kts | 226° |
| 2026-04-29 23:07 | 35.86117 | -78.80109 | 1021 ft | 75 kts | 220° |
| 2026-04-29 23:07 | 35.85688 | -78.80527 | 1185 ft | 84 kts | 217° |
| 2026-04-29 23:07 | 35.85236 | -78.80948 | 1369 ft | 83 kts | 218° |
| 2026-04-29 23:08 | 35.84752 | -78.81324 | 1441 ft | 85 kts | 198° |
| 2026-04-29 23:08 | 35.84147 | -78.81223 | 1484 ft | 95 kts | 153° |
| 2026-04-29 23:08 | 35.83751 | -78.80555 | 1513 ft | 103 kts | 104° |
| 2026-04-29 23:08 | 35.83925 | -78.79706 | 1513 ft | 108 kts | 57° |
| 2026-04-29 23:09 | 35.84424 | -78.79043 | 1532 ft | 104 kts | 43° |
| 2026-04-29 23:09 | 35.84977 | -78.78463 | 1503 ft | 105 kts | 39° |
| 2026-04-29 23:09 | 35.85548 | -78.77910 | 1475 ft | 105 kts | 40° |
| 2026-04-29 23:09 | 35.86062 | -78.77397 | 1429 ft | 88 kts | 41° |
| 2026-04-29 23:10 | 35.86503 | -78.76901 | 1391 ft | 84 kts | 45° |
| 2026-04-29 23:10 | 35.86926 | -78.76367 | 1365 ft | 87 kts | 49° |
| 2026-04-29 23:10 | 35.87300 | -78.75790 | 1314 ft | 89 kts | 54° |
| 2026-04-29 23:10 | 35.87689 | -78.75164 | 1274 ft | 92 kts | 53° |
| 2026-04-29 23:11 | 35.88215 | -78.74818 | 1320 ft | 85 kts | 356° |
| 2026-04-29 23:11 | 35.88667 | -78.75190 | 1340 ft | 83 kts | 287° |
| 2026-04-29 23:11 | 35.88839 | -78.75870 | 1389 ft | 80 kts | 276° |
| 2026-04-29 23:11 | 35.88772 | -78.76584 | 1273 ft | 86 kts | 250° |
| 2026-04-29 23:12 | 35.88495 | -78.77177 | 1071 ft | 78 kts | 233° |
| 2026-04-29 23:12 | 35.88145 | -78.77695 | 782 ft | 80 kts | 225° |
| 2026-04-29 23:12 | 35.87739 | -78.78170 | 515 ft | 80 kts | 225° |
| 2026-04-29 23:12 | 35.87379 | -78.78613 | 423 ft | 63 kts | 227° |
| 2026-04-29 23:13 | 35.87123 | -78.78917 | 419 ft | 38 kts | 223° |
| 2026-04-29 23:13 | 35.87009 | -78.79085 | 413 ft | 12 kts | 284° |
| 2026-04-29 23:13 | 35.87062 | -78.79103 | 414 ft | 6 kts | 13° |
| 2026-04-29 23:13 | 35.87093 | -78.79094 | 415 ft | 3 kts | 15° |
| 2026-04-29 23:14 | 35.87103 | -78.79090 | 415 ft | 0 kts | 10° |
| 2026-04-29 23:14 | 35.87135 | -78.79076 | 416 ft | 8 kts | 23° |
| 2026-04-29 23:15 | 35.87185 | -78.79036 | 413 ft | 9 kts | 45° |
| 2026-04-29 23:15 | 35.87239 | -78.78968 | 419 ft | 14 kts | 44° |
| 2026-04-29 23:15 | 35.87319 | -78.78870 | 423 ft | 17 kts | 45° |
| 2026-04-29 23:15 | 35.87401 | -78.78769 | 422 ft | 17 kts | 46° |
| 2026-04-29 23:16 | 35.87487 | -78.78664 | 427 ft | 18 kts | 45° |
| 2026-04-29 23:16 | 35.87577 | -78.78551 | 425 ft | 13 kts | 46° |
| 2026-04-29 23:16 | 35.87623 | -78.78493 | 426 ft | 11 kts | 44° |
| 2026-04-29 23:16 | 35.87678 | -78.78423 | 424 ft | 10 kts | 47° |
| 2026-04-29 23:17 | 35.87741 | -78.78417 | 428 ft | 12 kts | 313° |
| 2026-04-29 23:17 | 35.87803 | -78.78376 | 423 ft | 12 kts | 33° |
| 2026-04-29 23:17 | 35.87852 | -78.78401 | 432 ft | 5 kts | 311° |
| 2026-04-29 23:17 | 35.87856 | -78.78429 | 431 ft | 3 kts | 237° |
| 2026-04-29 23:18 | 35.87842 | -78.78451 | 425 ft | 4 kts | 226° |
| 2026-04-29 23:18 | 35.87840 | -78.78454 | 427 ft | 0 kts | 224° |